Vremea acum in Curtici - Romania

Vrei sa afli care e starea vremii acum in Arad - Romania? Dorim sa iti furnizam starea vremii pentru Arad - Romania. Starea vremii Arad - Romania pentru astazi.

Vremea acum in Curtici

Temperatura: 21 °C

Se simte ca: 21 °C
Innorat: 0 %
Precipitatii: 0 %
Presiune atmosferica: 1022 hPa
Umiditate: 31%
Vizibilitate: 10 km
Vantul bate din E cu 9 km/h

Evolutia vremii in Curtici pe ore

Ora: 12:00
Parțial noros
Temperatura: 21.9°C
Sansa de precipitatii: 0%
Ora Descriere Temp Se simte Precipitatii Umiditate Vant
00:00Parțial noros15.2°15.2°0%35%ESE 5.4 KM/H
01:00Parțial noros14.6°14.8°0%36%ESE 5.4 KM/H
02:00Parțial noros14.1°14.3°0%37%SE 5.4 KM/H
03:00Parțial noros13.6°13.7°0%38%ESE 5.8 KM/H
04:00Parțial noros13.2°13.2°0%39%ESE 5.8 KM/H
05:00Parțial noros12.7°12.6°0%40%ESE 6.1 KM/H
06:00Parțial noros12.9°12.8°0%40%ESE 6.1 KM/H
07:00Parțial noros13.1°13°0%40%ESE 6.1 KM/H
08:00Parțial noros13.3°13.2°0%40%ESE 6.1 KM/H
09:00Parțial noros15.8°15.7°0%35%ESE 6.1 KM/H
10:00Parțial noros18.3°18.3°0%30%ESE 6.1 KM/H
11:00Parțial noros20.8°20.8°0%25%E 6.1 KM/H
12:00Parțial noros21.9°21.9°0%23%E 5.8 KM/H
13:00Parțial noros23.1°22.5°0%21%E 5 KM/H
14:00Parțial noros24.2°23.3°0%20%ENE 4.7 KM/H
15:00Parțial noros23.6°23.2°0%21%NE 4.3 KM/H
16:00Parțial noros23.1°23°0%23%NE 4.3 KM/H
17:00Parțial noros22.5°22.9°0%24%NNE 4 KM/H
18:00Parțial noros21.1°21.1°0%26%NNE 4.7 KM/H
19:00Parțial noros19.7°19.7°0%28%NE 5.8 KM/H
20:00Parțial noros18.3°18.3°0%30%NE 6.5 KM/H
21:00Parțial noros17.8°17.8°0%32%ENE 6.1 KM/H
22:00Parțial noros17.2°17.2°0%33%E 5.8 KM/H
23:00Parțial noros16.7°16.7°0%35%ESE 5.4 KM/H